Time;durP1;ratioP1;P1;durP2;ratioP2;P2;SDS_P1;SDS_P2;PMS_P1;PMS_P2;Temp;Humidity;BMP_temperature;BMP_pressure;BME280_temperature;BME280_humidity;BME280_pressure;Samples;Min_cycle;Max_cycle;Signal;HPM_P1;HPM_P2
2021/07/23 00:00:47;;;;;;;;;14.00;13.75;;;;;;;;5065736;27;50890;-58
2021/07/23 00:03:13;;;;;;;;;11.75;11.75;;;;;;;;5072139;27;52463;-58
2021/07/23 00:05:38;;;;;;;;;16.33;15.00;;;;;;;;5072447;27;51027;-59
2021/07/23 00:08:03;;;;;;;;;16.67;16.67;;;;;;;;5072489;27;50973;-58
2021/07/23 00:10:28;;;;;;;;;15.00;14.25;;;;;;;;5069664;27;51089;-58
2021/07/23 00:12:53;;;;;;;;;16.00;15.33;;;;;;;;5066938;27;51804;-58
2021/07/23 00:15:19;;;;;;;;;16.67;16.00;;;;;;;;5063004;28;51116;-57
2021/07/23 00:17:44;;;;;;;;;14.67;14.67;;;;;;;;5072627;27;51179;-58
2021/07/23 00:20:09;;;;;;;;;15.00;13.67;;;;;;;;5073033;27;51241;-58
2021/07/23 00:22:34;;;;;;;;;15.00;14.33;;;;;;;;5066247;28;52974;-57
2021/07/23 00:25:00;;;;;;;;;17.00;16.00;;;;;;;;5072451;27;50913;-57
2021/07/23 00:27:25;;;;;;;;;14.00;14.00;;;;;;;;5072315;27;51084;-58
2021/07/23 00:29:51;;;;;;;;;15.67;15.00;;;;;;;;5066732;27;51381;-57
2021/07/23 00:32:16;;;;;;;;;15.00;15.00;;;;;;;;5068512;28;51086;-57
2021/07/23 00:34:41;;;;;;;;;12.67;12.33;;;;;;;;5065590;27;51095;-58
2021/07/23 00:37:06;;;;;;;;;12.33;12.00;;;;;;;;5064595;27;51765;-57
2021/07/23 00:39:31;;;;;;;;;12.33;11.67;;;;;;;;5072583;27;50847;-57
2021/07/23 00:41:57;;;;;;;;;16.00;15.33;;;;;;;;5071349;27;51213;-58
2021/07/23 00:44:22;;;;;;;;;17.67;16.00;;;;;;;;5061043;27;51030;-58
2021/07/23 00:46:47;;;;;;;;;15.50;15.50;;;;;;;;5062444;28;52794;-58
2021/07/23 00:49:12;;;;;;;;;14.00;14.00;;;;;;;;5072482;27;50784;-58
2021/07/23 00:51:38;;;;;;;;;16.67;14.00;;;;;;;;5065139;28;50946;-58
2021/07/23 00:54:04;;;;;;;;;15.00;14.33;;;;;;;;5072245;28;51048;-58
2021/07/23 00:56:31;;;;;;;;;15.33;14.33;;;;;;;;5070458;28;50942;-58
2021/07/23 00:58:57;;;;;;;;;15.00;14.00;;;;;;;;5070634;28;51233;-60
2021/07/23 01:01:23;;;;;;;;;15.50;14.75;;;;;;;;5068017;27;51065;-58
2021/07/23 01:03:49;;;;;;;;;16.25;16.25;;;;;;;;5071956;27;51001;-58
2021/07/23 01:06:14;;;;;;;;;16.67;16.67;;;;;;;;5071769;27;51152;-58
2021/07/23 01:08:40;;;;;;;;;16.25;15.75;;;;;;;;5070704;27;50961;-58
2021/07/23 01:11:05;;;;;;;;;16.33;16.00;;;;;;;;5072106;28;51002;-58
2021/07/23 01:13:30;;;;;;;;;15.00;15.00;;;;;;;;5075588;27;51008;-58
2021/07/23 01:15:56;;;;;;;;;15.67;15.00;;;;;;;;5071437;27;51296;-58
2021/07/23 01:18:21;;;;;;;;;16.67;15.00;;;;;;;;5063239;28;51142;-58
2021/07/23 01:20:47;;;;;;;;;14.33;14.00;;;;;;;;5074357;27;52419;-58
2021/07/23 01:23:13;;;;;;;;;12.00;11.33;;;;;;;;5075528;27;50937;-58
2021/07/23 01:25:39;;;;;;;;;14.33;14.33;;;;;;;;5064702;27;51154;-58
2021/07/23 01:28:05;;;;;;;;;15.00;15.00;;;;;;;;5075269;27;50931;-58
2021/07/23 01:30:32;;;;;;;;;16.33;15.33;;;;;;;;5072406;27;51113;-58
2021/07/23 01:32:58;;;;;;;;;19.00;18.25;;;;;;;;5064284;28;51105;-59
2021/07/23 01:35:23;;;;;;;;;17.00;15.00;;;;;;;;5075114;27;50944;-57
2021/07/23 01:37:49;;;;;;;;;17.33;16.00;;;;;;;;5075378;27;51161;-57
2021/07/23 01:40:14;;;;;;;;;15.00;15.00;;;;;;;;5064983;27;51783;-57
2021/07/23 01:42:40;;;;;;;;;16.25;16.00;;;;;;;;5073565;28;51112;-57
2021/07/23 01:45:06;;;;;;;;;14.00;13.67;;;;;;;;5065939;27;51139;-57
2021/07/23 01:47:32;;;;;;;;;16.50;15.50;;;;;;;;5071103;27;50866;-57
2021/07/23 01:49:57;;;;;;;;;16.33;14.67;;;;;;;;5074542;27;51838;-57
2021/07/23 01:52:22;;;;;;;;;15.50;15.25;;;;;;;;5075036;27;50947;-57
2021/07/23 01:54:47;;;;;;;;;15.33;15.33;;;;;;;;5073401;28;50827;-57
2021/07/23 01:57:13;;;;;;;;;18.33;17.33;;;;;;;;5074850;27;51011;-57
2021/07/23 01:59:38;;;;;;;;;16.00;15.00;;;;;;;;5072429;27;50915;-57
2021/07/23 02:02:03;;;;;;;;;15.33;14.67;;;;;;;;5073522;28;50879;-57
2021/07/23 02:04:29;;;;;;;;;16.67;15.33;;;;;;;;5074677;27;51095;-57
2021/07/23 02:06:54;;;;;;;;;17.67;16.00;;;;;;;;5074778;27;51361;-57
2021/07/23 02:09:19;;;;;;;;;19.25;18.25;;;;;;;;5069723;28;52064;-58
2021/07/23 02:11:44;;;;;;;;;17.00;14.67;;;;;;;;5062113;28;50919;-58
2021/07/23 02:14:10;;;;;;;;;17.33;15.67;;;;;;;;5074552;27;51133;-58
2021/07/23 02:16:36;;;;;;;;;15.33;15.33;;;;;;;;5075158;27;51121;-58
2021/07/23 02:19:01;;;;;;;;;14.00;14.00;;;;;;;;5071849;28;52167;-57
2021/07/23 02:21:26;;;;;;;;;17.00;17.00;;;;;;;;5074722;27;50977;-57
2021/07/23 02:23:51;;;;;;;;;18.33;18.00;;;;;;;;5073546;28;50904;-57
2021/07/23 02:26:21;;;;;;;;;15.00;15.00;;;;;;;;5073012;27;51187;-57
2021/07/23 02:28:46;;;;;;;;;17.50;17.00;;;;;;;;5074000;28;51359;-57
2021/07/23 02:31:12;;;;;;;;;15.75;15.50;;;;;;;;5074272;28;50954;-57
2021/07/23 02:33:37;;;;;;;;;16.00;15.67;;;;;;;;5074384;27;51005;-57
2021/07/23 02:36:03;;;;;;;;;16.67;16.67;;;;;;;;5073710;27;50952;-57
2021/07/23 02:38:28;;;;;;;;;19.25;18.50;;;;;;;;5058974;27;52970;-57
2021/07/23 02:40:55;;;;;;;;;16.00;13.50;;;;;;;;5074306;27;51054;-57
2021/07/23 02:43:20;;;;;;;;;18.75;17.00;;;;;;;;5072179;27;54456;-58
2021/07/23 02:45:45;;;;;;;;;18.50;17.25;;;;;;;;5061435;28;51068;-59
2021/07/23 02:48:10;;;;;;;;;18.50;17.50;;;;;;;;5070919;28;52340;-57
2021/07/23 02:50:36;;;;;;;;;19.00;18.75;;;;;;;;5061287;28;51394;-57
2021/07/23 02:53:01;;;;;;;;;17.25;17.25;;;;;;;;5068097;28;51182;-58
2021/07/23 02:55:26;;;;;;;;;20.25;18.25;;;;;;;;5074485;27;50991;-58
2021/07/23 02:57:51;;;;;;;;;17.25;16.50;;;;;;;;5066650;27;51232;-57
2021/07/23 03:00:16;;;;;;;;;18.50;18.50;;;;;;;;5073985;27;50966;-57
2021/07/23 03:02:42;;;;;;;;;19.00;18.00;;;;;;;;5074163;28;51115;-58
2021/07/23 03:05:07;;;;;;;;;17.25;16.75;;;;;;;;5074179;27;51435;-58
2021/07/23 03:07:32;;;;;;;;;19.50;19.25;;;;;;;;5071774;27;51645;-57
2021/07/23 03:09:57;;;;;;;;;17.25;16.50;;;;;;;;5073902;27;51013;-58
2021/07/23 03:12:23;;;;;;;;;20.50;17.75;;;;;;;;5070605;27;50933;-57
2021/07/23 03:14:48;;;;;;;;;18.00;17.25;;;;;;;;5071833;28;51029;-58
2021/07/23 03:17:13;;;;;;;;;21.00;18.25;;;;;;;;5071800;28;52349;-59
2021/07/23 03:19:38;;;;;;;;;16.00;15.75;;;;;;;;5073418;27;51187;-58
2021/07/23 03:22:03;;;;;;;;;21.75;20.00;;;;;;;;5072516;28;51026;-57
2021/07/23 03:24:29;;;;;;;;;19.00;16.25;;;;;;;;5070283;28;51275;-57
2021/07/23 03:26:54;;;;;;;;;20.00;20.00;;;;;;;;5072933;27;52383;-57
2021/07/23 03:29:19;;;;;;;;;17.00;15.50;;;;;;;;5073457;27;50953;-57
2021/07/23 03:31:44;;;;;;;;;17.50;17.50;;;;;;;;5073514;27;51628;-57
2021/07/23 03:34:09;;;;;;;;;17.50;16.50;;;;;;;;5066821;27;51352;-56
2021/07/23 03:36:35;;;;;;;;;22.25;20.00;;;;;;;;5069407;27;51336;-57
2021/07/23 03:39:00;;;;;;;;;20.00;19.25;;;;;;;;5072347;28;50993;-56
2021/07/23 03:41:25;;;;;;;;;21.25;20.75;;;;;;;;5073125;27;51190;-57
2021/07/23 03:43:50;;;;;;;;;19.75;19.25;;;;;;;;5073311;28;51055;-58
2021/07/23 03:46:15;;;;;;;;;22.25;20.00;;;;;;;;5070576;27;52207;-57
2021/07/23 03:48:41;;;;;;;;;20.25;19.00;;;;;;;;5071462;28;50957;-57
2021/07/23 03:51:06;;;;;;;;;19.50;18.25;;;;;;;;5071156;27;50962;-58
2021/07/23 03:53:31;;;;;;;;;23.75;21.75;;;;;;;;5073259;28;51230;-58
2021/07/23 03:55:56;;;;;;;;;22.00;19.75;;;;;;;;5072633;27;51985;-57
2021/07/23 03:58:23;;;;;;;;;21.50;20.75;;;;;;;;5072868;27;51092;-57
2021/07/23 04:00:48;;;;;;;;;20.00;18.75;;;;;;;;5071176;27;50967;-57
2021/07/23 04:03:13;;;;;;;;;19.00;19.00;;;;;;;;5072979;27;51031;-57
2021/07/23 04:05:38;;;;;;;;;21.75;20.25;;;;;;;;5050084;28;53452;-57
2021/07/23 04:08:04;;;;;;;;;20.75;19.75;;;;;;;;5071370;28;51147;-58
2021/07/23 04:10:29;;;;;;;;;19.50;18.75;;;;;;;;5061267;27;50824;-57
2021/07/23 04:12:54;;;;;;;;;24.25;23.00;;;;;;;;5070458;28;51101;-57
2021/07/23 04:15:20;;;;;;;;;23.25;22.00;;;;;;;;5072738;27;50988;-57
2021/07/23 04:17:45;;;;;;;;;21.25;20.50;;;;;;;;5072472;28;50933;-58
2021/07/23 04:20:10;;;;;;;;;19.25;18.00;;;;;;;;5071272;27;51023;-58
2021/07/23 04:22:36;;;;;;;;;17.25;17.00;;;;;;;;5072971;28;51263;-57
2021/07/23 04:25:01;;;;;;;;;22.00;22.00;;;;;;;;5072709;27;51980;-58
2021/07/23 04:27:26;;;;;;;;;22.25;21.25;;;;;;;;5057204;27;51139;-57
2021/07/23 04:29:51;;;;;;;;;21.25;20.50;;;;;;;;5071384;27;51135;-58
2021/07/23 04:32:16;;;;;;;;;23.25;22.75;;;;;;;;5072665;27;51029;-57
2021/07/23 04:34:42;;;;;;;;;23.50;21.25;;;;;;;;5072089;27;52195;-57
2021/07/23 04:37:07;;;;;;;;;20.50;19.75;;;;;;;;5071641;27;50978;-58
2021/07/23 04:39:32;;;;;;;;;24.25;22.50;;;;;;;;5070821;28;51104;-58
2021/07/23 04:41:57;;;;;;;;;21.00;21.00;;;;;;;;5072285;27;51152;-58
2021/07/23 04:44:22;;;;;;;;;23.00;20.50;;;;;;;;5069889;27;51111;-58
2021/07/23 04:46:48;;;;;;;;;26.00;24.50;;;;;;;;5072242;28;51097;-57
2021/07/23 04:49:13;;;;;;;;;25.50;23.00;;;;;;;;5056507;28;51291;-58
2021/07/23 04:51:39;;;;;;;;;20.00;19.50;;;;;;;;5075913;27;51092;-59
2021/07/23 04:54:04;;;;;;;;;21.00;20.00;;;;;;;;5071174;27;51300;-57
2021/07/23 04:56:29;;;;;;;;;23.50;22.00;;;;;;;;5075656;27;50996;-58
2021/07/23 04:58:54;;;;;;;;;22.25;21.25;;;;;;;;5075309;27;50976;-57
2021/07/23 05:01:19;;;;;;;;;16.25;14.25;;;;;;;;5069387;27;51430;-57
2021/07/23 05:03:45;;;;;;;;;23.25;22.25;;;;;;;;5067028;27;52200;-57
2021/07/23 05:06:10;;;;;;;;;23.00;21.50;;;;;;;;5061399;27;51400;-58
2021/07/23 05:08:36;;;;;;;;;18.75;18.75;;;;;;;;5083161;27;51060;-58
2021/07/23 05:11:01;;;;;;;;;22.00;20.00;;;;;;;;5075017;27;50978;-57
2021/07/23 05:13:28;;;;;;;;;24.00;22.50;;;;;;;;5087022;27;52361;-57
2021/07/23 05:15:54;;;;;;;;;21.25;19.75;;;;;;;;5079335;27;51072;-58
2021/07/23 05:18:19;;;;;;;;;26.00;22.75;;;;;;;;5074425;27;51634;-58
2021/07/23 05:20:45;;;;;;;;;22.50;21.50;;;;;;;;5077483;27;50914;-58
2021/07/23 05:23:10;;;;;;;;;22.50;21.75;;;;;;;;5082359;27;51243;-57
2021/07/23 05:25:36;;;;;;;;;21.50;21.25;;;;;;;;5074608;27;50927;-57
2021/07/23 05:28:01;;;;;;;;;21.25;19.25;;;;;;;;5074611;27;50984;-57
2021/07/23 05:30:27;;;;;;;;;23.75;21.50;;;;;;;;5076537;27;51342;-57
2021/07/23 05:32:52;;;;;;;;;22.00;22.00;;;;;;;;5074072;27;51844;-57
2021/07/23 05:35:17;;;;;;;;;24.25;23.00;;;;;;;;5073698;27;51101;-57
2021/07/23 05:37:42;;;;;;;;;24.00;22.25;;;;;;;;5074401;27;51172;-58
2021/07/23 05:40:08;;;;;;;;;20.50;19.75;;;;;;;;5074588;27;51216;-58
2021/07/23 05:42:33;;;;;;;;;21.50;20.75;;;;;;;;5073834;27;52392;-58
2021/07/23 05:44:58;;;;;;;;;25.50;24.50;;;;;;;;5073737;27;52016;-58
2021/07/23 05:47:24;;;;;;;;;24.75;23.50;;;;;;;;5073609;27;51275;-58
2021/07/23 05:49:49;;;;;;;;;23.00;21.75;;;;;;;;5074438;27;51030;-57
2021/07/23 05:52:14;;;;;;;;;22.25;21.50;;;;;;;;5073684;27;52541;-57
2021/07/23 05:54:39;;;;;;;;;23.50;21.50;;;;;;;;5073834;27;51004;-59
2021/07/23 05:57:05;;;;;;;;;23.25;22.25;;;;;;;;5074229;27;51076;-58
2021/07/23 05:59:30;;;;;;;;;21.50;21.25;;;;;;;;5068661;28;51364;-58
2021/07/23 06:01:55;;;;;;;;;24.00;23.50;;;;;;;;5076578;27;51608;-58
2021/07/23 06:04:21;;;;;;;;;22.00;21.00;;;;;;;;5071851;28;51006;-59
2021/07/23 06:06:46;;;;;;;;;22.25;20.25;;;;;;;;5074106;27;51225;-59
2021/07/23 06:09:12;;;;;;;;;22.75;22.25;;;;;;;;5074656;27;51367;-59
2021/07/23 06:11:38;;;;;;;;;19.00;18.50;;;;;;;;5073951;27;52271;-59
2021/07/23 06:14:04;;;;;;;;;20.50;20.25;;;;;;;;5074017;27;51110;-58
2021/07/23 06:16:29;;;;;;;;;21.00;19.00;;;;;;;;5073993;27;50938;-58
2021/07/23 06:18:55;;;;;;;;;20.00;20.00;;;;;;;;5074190;27;50876;-58
2021/07/23 06:21:21;;;;;;;;;20.75;20.25;;;;;;;;5071829;28;52961;-58
2021/07/23 06:23:46;;;;;;;;;22.00;21.00;;;;;;;;5073773;27;51227;-59
2021/07/23 06:26:11;;;;;;;;;20.75;19.75;;;;;;;;5073815;27;51181;-58
2021/07/23 06:28:37;;;;;;;;;20.25;19.50;;;;;;;;5074223;27;51108;-58
2021/07/23 06:31:02;;;;;;;;;24.00;24.00;;;;;;;;5072744;28;51107;-58
2021/07/23 06:33:28;;;;;;;;;22.25;21.75;;;;;;;;5073903;27;51057;-59
2021/07/23 06:35:53;;;;;;;;;22.75;21.25;;;;;;;;5072741;28;51096;-59
2021/07/23 06:38:18;;;;;;;;;22.50;21.00;;;;;;;;5072847;28;51247;-58
2021/07/23 06:40:43;;;;;;;;;23.25;22.50;;;;;;;;5073895;27;50935;-58
2021/07/23 06:43:09;;;;;;;;;22.00;20.75;;;;;;;;5072956;27;51044;-59
2021/07/23 06:45:35;;;;;;;;;22.25;22.00;;;;;;;;5071247;27;50996;-59
2021/07/23 06:48:00;;;;;;;;;22.50;22.25;;;;;;;;5067500;27;50922;-58
2021/07/23 06:50:25;;;;;;;;;22.25;22.25;;;;;;;;5073519;27;51933;-58
2021/07/23 06:52:51;;;;;;;;;22.50;22.00;;;;;;;;5073428;27;51034;-58
2021/07/23 06:55:16;;;;;;;;;20.75;20.25;;;;;;;;5073713;28;50844;-59
2021/07/23 06:57:44;;;;;;;;;20.00;20.00;;;;;;;;5073522;27;50769;-58
2021/07/23 07:00:10;;;;;;;;;21.25;21.00;;;;;;;;5073013;27;52127;-58
2021/07/23 07:02:35;;;;;;;;;25.25;25.25;;;;;;;;5073060;27;51041;-58
2021/07/23 07:05:02;;;;;;;;;23.75;23.75;;;;;;;;5071497;28;51193;-57
2021/07/23 07:07:27;;;;;;;;;18.25;18.25;;;;;;;;5071747;28;51317;-58
2021/07/23 07:09:52;;;;;;;;;21.00;21.00;;;;;;;;5072297;27;51087;-60
2021/07/23 07:12:17;;;;;;;;;23.50;22.50;;;;;;;;5072924;27;51040;-57
2021/07/23 07:14:42;;;;;;;;;22.25;20.50;;;;;;;;5073325;27;51262;-58
2021/07/23 07:17:08;;;;;;;;;24.00;24.00;;;;;;;;5071810;28;51012;-58
2021/07/23 07:19:33;;;;;;;;;21.50;21.00;;;;;;;;5072722;27;52918;-58
2021/07/23 07:21:58;;;;;;;;;20.50;20.25;;;;;;;;5073925;28;51005;-58
2021/07/23 07:24:24;;;;;;;;;21.25;20.25;;;;;;;;5074030;27;51051;-59
2021/07/23 07:26:49;;;;;;;;;20.00;20.00;;;;;;;;5073521;27;51275;-58
2021/07/23 07:29:15;;;;;;;;;23.75;22.75;;;;;;;;5073314;27;51352;-58
2021/07/23 07:31:40;;;;;;;;;23.00;23.00;;;;;;;;5073140;27;51071;-58
2021/07/23 07:34:06;;;;;;;;;19.75;19.00;;;;;;;;5073338;27;50949;-58
2021/07/23 07:36:32;;;;;;;;;20.75;20.00;;;;;;;;5073849;27;50885;-59
2021/07/23 07:38:58;;;;;;;;;19.00;18.50;;;;;;;;5073261;27;51224;-59
2021/07/23 07:41:23;;;;;;;;;16.25;16.00;;;;;;;;5071254;28;51064;-58
2021/07/23 07:43:48;;;;;;;;;22.25;21.50;;;;;;;;5072689;27;51528;-58
2021/07/23 07:46:14;;;;;;;;;19.25;18.25;;;;;;;;5071492;28;51141;-58
2021/07/23 07:48:39;;;;;;;;;20.50;20.25;;;;;;;;5072415;27;51019;-58
2021/07/23 07:51:06;;;;;;;;;22.00;20.50;;;;;;;;5072686;27;50988;-57
2021/07/23 07:53:32;;;;;;;;;19.25;19.25;;;;;;;;5072755;27;51265;-59
2021/07/23 07:55:57;;;;;;;;;22.00;20.25;;;;;;;;5072386;28;51200;-59
2021/07/23 07:58:22;;;;;;;;;19.50;17.50;;;;;;;;5072075;27;51834;-58
2021/07/23 08:00:47;;;;;;;;;19.00;18.00;;;;;;;;5072798;27;51042;-58
2021/07/23 08:03:12;;;;;;;;;20.25;19.50;;;;;;;;5072552;27;51333;-58
2021/07/23 08:05:38;;;;;;;;;22.75;22.00;;;;;;;;5072504;28;51060;-58
2021/07/23 08:08:04;;;;;;;;;21.00;21.00;;;;;;;;5072449;27;51171;-59
2021/07/23 08:10:33;;;;;;;;;20.75;20.00;;;;;;;;5072435;27;51017;-59
2021/07/23 08:12:58;;;;;;;;;20.25;20.25;;;;;;;;5071905;27;51066;-59
2021/07/23 08:15:23;;;;;;;;;18.25;18.00;;;;;;;;5072670;27;51168;-59
2021/07/23 08:17:48;;;;;;;;;21.50;20.00;;;;;;;;5072018;27;52857;-58
2021/07/23 08:20:14;;;;;;;;;19.25;19.00;;;;;;;;5071697;27;50990;-58
2021/07/23 08:22:39;;;;;;;;;19.25;18.75;;;;;;;;5071470;27;51198;-58
2021/07/23 08:25:05;;;;;;;;;17.50;17.00;;;;;;;;5072727;27;50854;-59
2021/07/23 08:27:30;;;;;;;;;19.25;19.25;;;;;;;;5070197;28;52156;-58
2021/07/23 08:29:55;;;;;;;;;19.75;19.75;;;;;;;;5071850;27;50870;-59
2021/07/23 08:32:21;;;;;;;;;15.50;15.50;;;;;;;;5071947;27;50901;-58
2021/07/23 08:34:46;;;;;;;;;19.75;19.00;;;;;;;;5072579;27;51132;-59
2021/07/23 08:37:11;;;;;;;;;18.00;17.00;;;;;;;;5071718;28;51836;-58
2021/07/23 08:39:36;;;;;;;;;20.00;20.00;;;;;;;;5072116;27;51140;-59
2021/07/23 08:42:34;;;;;;;;;10.50;10.50;;;;;;;;5071653;27;51366;-58
2021/07/23 08:45:00;;;;;;;;;20.25;19.75;;;;;;;;5051137;28;51211;-59
2021/07/23 08:47:25;;;;;;;;;20.00;19.25;;;;;;;;5062143;27;51149;-57
2021/07/23 08:49:51;;;;;;;;;20.75;20.75;;;;;;;;5064345;28;50974;-59
2021/07/23 08:52:17;;;;;;;;;21.00;20.50;;;;;;;;5070730;28;51327;-60
2021/07/23 08:54:44;;;;;;;;;21.00;21.00;;;;;;;;5070530;27;51262;-60
2021/07/23 08:57:09;;;;;;;;;18.25;17.75;;;;;;;;5059393;28;51917;-59
2021/07/23 08:59:34;;;;;;;;;20.50;20.50;;;;;;;;5071798;27;50846;-58
2021/07/23 09:02:06;;;;;;;;;20.25;19.25;;;;;;;;5072037;27;51192;-58
2021/07/23 09:04:32;;;;;;;;;22.25;22.25;;;;;;;;5072085;27;50871;-58
2021/07/23 09:07:16;;;;;;;;;19.25;19.25;;;;;;;;5071243;28;50938;-59
2021/07/23 09:09:42;;;;;;;;;15.25;15.25;;;;;;;;5071500;27;50918;-59
2021/07/23 09:12:07;;;;;;;;;21.00;20.25;;;;;;;;5071505;28;50981;-59
2021/07/23 09:14:33;;;;;;;;;19.00;18.25;;;;;;;;5070178;28;51010;-59
2021/07/23 09:16:58;;;;;;;;;19.50;18.50;;;;;;;;5071252;27;51069;-58
2021/07/23 09:19:23;;;;;;;;;19.25;17.75;;;;;;;;5071439;27;51045;-59
2021/07/23 09:21:56;;;;;;;;;15.25;15.25;;;;;;;;5071768;27;51349;-59
2021/07/23 09:24:22;;;;;;;;;19.25;19.25;;;;;;;;5071721;27;50879;-59
2021/07/23 09:26:48;;;;;;;;;17.25;16.75;;;;;;;;5070602;27;50982;-57
2021/07/23 09:29:14;;;;;;;;;18.25;18.25;;;;;;;;5069189;28;51217;-60
2021/07/23 09:31:39;;;;;;;;;20.75;20.75;;;;;;;;5071164;27;50840;-59
2021/07/23 09:34:05;;;;;;;;;17.50;17.50;;;;;;;;5074737;28;51259;-59
2021/07/23 09:36:31;;;;;;;;;23.50;23.00;;;;;;;;5074373;27;51637;-59
2021/07/23 09:39:01;;;;;;;;;21.00;20.25;;;;;;;;5074395;27;51265;-58
2021/07/23 09:41:26;;;;;;;;;16.00;16.00;;;;;;;;5074542;27;51081;-58
2021/07/23 09:44:00;;;;;;;;;17.75;17.75;;;;;;;;5074486;27;51037;-58
2021/07/23 09:46:26;;;;;;;;;19.25;19.25;;;;;;;;5074442;27;51759;-58
2021/07/23 09:48:52;;;;;;;;;25.25;24.00;;;;;;;;5074582;27;50973;-58
2021/07/23 09:51:19;;;;;;;;;18.25;18.25;;;;;;;;5074311;27;51169;-60
2021/07/23 09:53:44;;;;;;;;;18.00;18.00;;;;;;;;5074785;27;50951;-59
2021/07/23 09:56:10;;;;;;;;;17.75;17.50;;;;;;;;5073928;27;50818;-58
2021/07/23 09:58:42;;;;;;;;;19.75;19.25;;;;;;;;5060365;28;50884;-58
2021/07/23 10:01:18;;;;;;;;;18.50;18.25;;;;;;;;5073996;27;50915;-59
2021/07/23 10:03:45;;;;;;;;;19.25;19.00;;;;;;;;5074293;27;50844;-60
2021/07/23 10:06:13;;;;;;;;;18.00;17.50;;;;;;;;5073230;27;51914;-57
2021/07/23 10:08:40;;;;;;;;;19.75;19.75;;;;;;;;5074138;27;51032;-58
2021/07/23 10:11:06;;;;;;;;;20.75;20.75;;;;;;;;5073418;27;51024;-57
2021/07/23 10:13:34;;;;;;;;;18.50;18.25;;;;;;;;5072818;28;51067;-58
2021/07/23 10:16:00;;;;;;;;;18.50;17.75;;;;;;;;5073483;27;52237;-59
2021/07/23 10:18:26;;;;;;;;;18.50;18.50;;;;;;;;5072801;28;50851;-60
2021/07/23 10:20:53;;;;;;;;;19.75;19.75;;;;;;;;5073744;27;51096;-59
2021/07/23 10:23:22;;;;;;;;;21.00;20.50;;;;;;;;5073728;27;50913;-59
2021/07/23 10:25:52;;;;;;;;;18.00;18.00;;;;;;;;5072589;27;51180;-59
2021/07/23 10:28:43;;;;;;;;;17.00;16.75;;;;;;;;5073605;27;51122;-58
2021/07/23 10:31:37;;;;;;;;;17.50;17.50;;;;;;;;5071676;27;51395;-59
2021/07/23 10:34:03;;;;;;;;;18.50;18.25;;;;;;;;5073078;27;51912;-58
2021/07/23 10:36:32;;;;;;;;;13.25;13.25;;;;;;;;5072825;27;52302;-59
2021/07/23 10:39:06;;;;;;;;;19.00;19.00;;;;;;;;5071700;28;51033;-59
2021/07/23 10:41:32;;;;;;;;;17.25;17.00;;;;;;;;5071946;28;51017;-60
2021/07/23 10:43:57;;;;;;;;;19.00;18.25;;;;;;;;5072888;27;50920;-58
2021/07/23 10:46:41;;;;;;;;;14.25;13.50;;;;;;;;5072595;27;52220;-59
2021/07/23 10:49:06;;;;;;;;;22.50;22.00;;;;;;;;5068035;27;51248;-58
2021/07/23 10:51:44;;;;;;;;;20.25;20.00;;;;;;;;5071641;28;50971;-59
2021/07/23 10:54:09;;;;;;;;;20.50;20.50;;;;;;;;5072603;27;50901;-59
2021/07/23 10:57:03;;;;;;;;;22.25;22.25;;;;;;;;5072001;28;53410;-59
2021/07/23 10:59:43;;;;;;;;;23.50;22.75;;;;;;;;5072504;27;51088;-57
2021/07/23 11:02:28;;;;;;;;;20.50;20.50;;;;;;;;5072772;27;51043;-58
2021/07/23 11:05:04;;;;;;;;;20.00;19.25;;;;;;;;5072377;28;51491;-58
2021/07/23 11:07:29;;;;;;;;;18.75;18.00;;;;;;;;5070833;28;51290;-59
2021/07/23 11:09:55;;;;;;;;;17.50;16.50;;;;;;;;5072039;27;50980;-58
2021/07/23 11:12:22;;;;;;;;;19.50;19.00;;;;;;;;5071707;27;50941;-59
2021/07/23 11:15:00;;;;;;;;;17.00;17.00;;;;;;;;5071797;27;51008;-58
2021/07/23 11:17:26;;;;;;;;;14.50;14.50;;;;;;;;5071893;27;51801;-59
2021/07/23 11:19:55;;;;;;;;;16.00;15.00;;;;;;;;5072072;27;50996;-58
2021/07/23 11:22:25;;;;;;;;;15.25;14.75;;;;;;;;5071837;27;50916;-59
2021/07/23 11:24:54;;;;;;;;;17.25;16.75;;;;;;;;5072204;27;51166;-61
2021/07/23 11:27:25;;;;;;;;;15.75;14.50;;;;;;;;5071616;27;50908;-58
2021/07/23 11:29:52;;;;;;;;;12.75;12.00;;;;;;;;5072682;27;50931;-59
2021/07/23 11:32:18;;;;;;;;;12.50;12.50;;;;;;;;5072218;28;51138;-58
2021/07/23 11:34:44;;;;;;;;;12.00;12.00;;;;;;;;5072351;27;51107;-59
2021/07/23 11:37:26;;;;;;;;;14.50;14.25;;;;;;;;5072050;27;53661;-58
2021/07/23 11:39:52;;;;;;;;;15.75;15.25;;;;;;;;5072264;28;50964;-59
2021/07/23 11:42:17;;;;;;;;;17.25;17.25;;;;;;;;5072076;27;51022;-58
2021/07/23 11:44:49;;;;;;;;;19.00;19.00;;;;;;;;5072702;27;51189;-59
2021/07/23 11:47:15;;;;;;;;;13.25;13.00;;;;;;;;5071836;27;52710;-58
2021/07/23 11:49:40;;;;;;;;;11.50;9.75;;;;;;;;5070898;28;50988;-58
2021/07/23 11:52:05;;;;;;;;;15.00;15.00;;;;;;;;5072653;28;51021;-58
2021/07/23 11:54:31;;;;;;;;;15.00;15.00;;;;;;;;5070782;28;51407;-59
2021/07/23 11:57:00;;;;;;;;;14.25;14.25;;;;;;;;5071218;27;52940;-58
2021/07/23 11:59:25;;;;;;;;;17.50;17.50;;;;;;;;5071918;27;50895;-58
2021/07/23 12:01:51;;;;;;;;;18.00;17.25;;;;;;;;5072421;28;51065;-59
2021/07/23 12:04:16;;;;;;;;;16.25;16.25;;;;;;;;5071834;27;51283;-58
2021/07/23 12:06:44;;;;;;;;;16.00;14.50;;;;;;;;5070630;28;52289;-59
2021/07/23 12:09:10;;;;;;;;;15.25;15.25;;;;;;;;5069309;28;51105;-59
2021/07/23 12:11:36;;;;;;;;;15.00;14.50;;;;;;;;5071187;27;51024;-59
2021/07/23 12:14:05;;;;;;;;;13.00;12.67;;;;;;;;5070995;27;50964;-58
2021/07/23 12:16:31;;;;;;;;;18.50;18.50;;;;;;;;5071150;27;52389;-59
2021/07/23 12:19:00;;;;;;;;;15.50;15.50;;;;;;;;5071352;27;50957;-58
2021/07/23 12:21:26;;;;;;;;;17.25;17.25;;;;;;;;5071822;27;51091;-59
2021/07/23 12:23:56;;;;;;;;;14.50;14.50;;;;;;;;5071402;27;51199;-59
2021/07/23 12:26:31;;;;;;;;;12.50;12.50;;;;;;;;5070912;27;53029;-59
2021/07/23 12:28:57;;;;;;;;;14.25;14.25;;;;;;;;5071553;27;51099;-59
2021/07/23 12:31:23;;;;;;;;;16.75;16.75;;;;;;;;5070235;28;51213;-59
2021/07/23 12:34:07;;;;;;;;;15.75;15.75;;;;;;;;5071622;27;51053;-59
2021/07/23 12:36:40;;;;;;;;;18.00;16.25;;;;;;;;5071197;27;51176;-59
2021/07/23 12:39:05;;;;;;;;;13.33;13.00;;;;;;;;5071568;27;50811;-58
2021/07/23 12:41:31;;;;;;;;;17.25;16.50;;;;;;;;5071032;28;50978;-59
2021/07/23 12:44:09;;;;;;;;;15.50;14.50;;;;;;;;5071547;27;51397;-58
2021/07/23 12:46:35;;;;;;;;;17.00;16.00;;;;;;;;5070883;27;51293;-59
2021/07/23 12:49:08;;;;;;;;;19.25;15.25;;;;;;;;5062452;27;50976;-59
2021/07/23 12:51:33;;;;;;;;;14.00;13.50;;;;;;;;5066361;28;51278;-58
2021/07/23 12:53:58;;;;;;;;;15.67;15.00;;;;;;;;5071475;27;50956;-58
2021/07/23 12:56:31;;;;;;;;;15.00;14.00;;;;;;;;5070564;27;51153;-58
2021/07/23 12:58:57;;;;;;;;;15.50;14.25;;;;;;;;5071384;27;50935;-58
2021/07/23 13:01:23;;;;;;;;;18.00;17.67;;;;;;;;5070913;28;51130;-58
2021/07/23 13:03:49;;;;;;;;;11.00;10.75;;;;;;;;5071190;27;51088;-58
2021/07/23 13:06:19;;;;;;;;;14.75;14.75;;;;;;;;5070682;27;51045;-59
2021/07/23 13:08:45;;;;;;;;;16.50;15.75;;;;;;;;5074003;28;50892;-58
2021/07/23 13:11:10;;;;;;;;;12.00;12.00;;;;;;;;5072423;28;51374;-59
2021/07/23 13:13:40;;;;;;;;;14.50;14.00;;;;;;;;5074350;27;51310;-59
2021/07/23 13:16:06;;;;;;;;;13.00;12.33;;;;;;;;5073727;28;51914;-59
2021/07/23 13:18:31;;;;;;;;;15.25;14.75;;;;;;;;5073852;27;51056;-59
2021/07/23 13:20:56;;;;;;;;;14.75;14.00;;;;;;;;5073734;27;50949;-60
2021/07/23 13:23:21;;;;;;;;;12.25;12.25;;;;;;;;5074495;27;51002;-58
2021/07/23 13:25:47;;;;;;;;;13.50;13.50;;;;;;;;5073894;28;52003;-58
2021/07/23 13:28:13;;;;;;;;;15.00;15.00;;;;;;;;5074442;27;50972;-59
2021/07/23 13:30:38;;;;;;;;;14.75;12.75;;;;;;;;5074061;28;51019;-60
2021/07/23 13:33:06;;;;;;;;;13.75;13.75;;;;;;;;5065256;27;51108;-59
2021/07/23 13:35:31;;;;;;;;;13.50;13.50;;;;;;;;5070646;28;51724;-58
2021/07/23 13:37:57;;;;;;;;;15.50;14.50;;;;;;;;5074132;28;51151;-60
2021/07/23 13:40:27;;;;;;;;;14.25;14.00;;;;;;;;5073711;27;51051;-58
2021/07/23 13:42:54;;;;;;;;;15.25;15.00;;;;;;;;5074601;27;50825;-57
2021/07/23 13:45:20;;;;;;;;;14.75;14.50;;;;;;;;5073838;27;51792;-58
2021/07/23 13:47:47;;;;;;;;;15.00;14.75;;;;;;;;5074156;27;50972;-59
2021/07/23 13:50:14;;;;;;;;;16.50;15.25;;;;;;;;5074204;28;51121;-57
2021/07/23 13:52:39;;;;;;;;;15.00;14.50;;;;;;;;5074029;27;51220;-59
2021/07/23 13:55:05;;;;;;;;;16.25;16.25;;;;;;;;5072967;27;51823;-58
2021/07/23 13:57:30;;;;;;;;;11.75;11.75;;;;;;;;5072858;27;50929;-59
2021/07/23 13:59:55;;;;;;;;;15.00;14.00;;;;;;;;5073770;27;51092;-59
2021/07/23 14:02:21;;;;;;;;;15.00;14.25;;;;;;;;5073759;27;50941;-59
2021/07/23 14:04:50;;;;;;;;;18.75;18.00;;;;;;;;5071865;27;52047;-59
2021/07/23 14:07:15;;;;;;;;;15.75;15.25;;;;;;;;5073523;27;50860;-58
2021/07/23 14:09:40;;;;;;;;;16.25;15.75;;;;;;;;5073229;27;51126;-58
2021/07/23 14:12:06;;;;;;;;;15.50;15.50;;;;;;;;5073442;28;51121;-59